Portada
METAR-TAF:

METAR-TAF

Aeroports :

Aeroport de Jiddah Rei Abdulaziz

Jiddah, Aràbia Saudita

latitud: 21-42N, longitud: 039-11E, altitud: 15 m

Observació

L'informe es va fer fa 1 hora i 2 minuts, a les 10:00 UTC
Vent 10 kt del Oest
Temperatura 33°C
Humitat 59%
Pressió 1009 hPa
Visibilitat 10 km o més
Escasses núvols a una alçada de 4000 ft

METAR: OEJN 221000Z 27010KT 9999 FEW040 33/24 Q1009 NOSIG

Hora: 14:02 (11:02 UTC)

Pronòstic

L'informe es va fer fa 6 hores i 2 minuts, a les 05:00 UTC
Pronòstic vàlid del 22 a les 06 UTC al 23 a les 12 UTC
Vent 14 kt del Oest/Sud-Oest
Visibilitat: 8000 m
Escasses núvols a una alçada de 4000 ft
Probabilitat 30% :
Temporalment
l' 22 a les 06 UTC al 22 a les 12 UTC
Visibilitat: 6000 m
Escasses núvols a una alçada de 3500 ft, Cumulonimbus.
Núvols disperses a una alçada de 4000 ft
tempesta, pluja

TAF: OEJN 220500Z 2206/2312 24014KT 8000 FEW040 PROB30 TEMPO 2206/2212 6000 TSRA FEW035CB SCT040

Observacions i pronòstics meteorològics de més de 4000 aeroports (METAR i TAF).

Les estacions disponibles són els punts grocs i vermells al mapa.

Posi el ratolí al punt desitjat per veure el nom de l'estació.

Feu clic per veure les observacions i els pronòstics meteorològics.

Per canviar el mapa: feu clic els botons verds amb una creu de color negre per apropar; al botó verd amb un guió per allunyar la imatge; o en les fletxes verdes per a mapes adjacents.


METAR-TAF: